Time;durP1;ratioP1;P1;durP2;ratioP2;P2;SDS_P1;SDS_P2;PMS_P1;PMS_P2;Temp;Humidity;BMP_temperature;BMP_pressure;BME280_temperature;BME280_humidity;BME280_pressure;Samples;Min_cycle;Max_cycle;Signal;HPM_P1;HPM_P2
2022/09/09 00:02:18;;;;;;;;;;;;;;;16.53;58.06;101083.94;5077602;28;1119;-49
2022/09/09 00:04:43;;;;;;;;;;;;;;;16.40;57.95;101088.00;5079730;28;1012;-51
2022/09/09 00:07:23;;;;;;;;;;;;;;;16.27;57.80;101090.38;5078605;28;961;-51
2022/09/09 00:09:49;;;;;;;;;;;;;;;16.22;57.51;101083.75;5053286;28;1016;-50
2022/09/09 00:12:15;;;;;;;;;;;;;;;16.18;56.98;101076.31;5077019;28;1124;-51
2022/09/09 00:14:50;;;;;;;;;;;;;;;16.10;56.95;101063.09;5064182;28;1005;-51
2022/09/09 00:17:30;;;;;;;;;;;;;;;16.04;57.10;101060.31;5081035;28;1147;-52
2022/09/09 00:20:11;;;;;;;;;;;;;;;16.04;56.78;101065.78;5085835;28;1902;-49
2022/09/09 00:22:36;;;;;;;;;;;;;;;17.39;57.34;101062.63;5077737;28;1083;-51
2022/09/09 00:25:10;;;;;;;;;;;;;;;16.91;58.50;101061.94;5058872;28;1089;-50
2022/09/09 00:27:42;;;;;;;;;;;;;;;16.60;58.09;101067.25;5060104;28;1150;-51
2022/09/09 00:30:19;;;;;;;;;;;;;;;16.41;58.10;101059.47;5063661;28;1060;-51
2022/09/09 00:32:45;;;;;;;;;;;;;;;16.32;57.71;101066.53;5077060;28;1194;-48
2022/09/09 00:35:37;;;;;;;;;;;;;;;16.17;57.67;101063.69;5058846;28;1025;-52
2022/09/09 00:38:25;;;;;;;;;;;;;;;16.14;57.06;101059.56;5085665;28;1910;-51
2022/09/09 00:40:57;;;;;;;;;;;;;;;16.04;57.34;101060.31;5064123;28;1613;-51
2022/09/09 00:43:27;;;;;;;;;;;;;;;16.03;57.12;101063.31;5086421;28;1024;-51
2022/09/09 00:45:59;;;;;;;;;;;;;;;16.81;57.99;101073.66;5070225;28;1147;-49
2022/09/09 00:48:27;;;;;;;;;;;;;;;17.16;57.91;101057.63;5042347;28;1156;-52
2022/09/09 00:51:01;;;;;;;;;;;;;;;16.63;58.50;101050.25;5065771;28;1163;-52
2022/09/09 00:53:29;;;;;;;;;;;;;;;16.43;57.88;101046.28;5066030;28;1000;-51
2022/09/09 00:55:55;;;;;;;;;;;;;;;16.28;57.92;101042.66;5076637;28;1139;-49
2022/09/09 00:58:20;;;;;;;;;;;;;;;16.20;57.41;101035.72;5076322;28;1902;-50
2022/09/09 01:00:50;;;;;;;;;;;;;;;16.11;57.62;101037.31;5084100;28;969;-47
2022/09/09 01:03:25;;;;;;;;;;;;;;;16.08;57.02;101044.16;5082426;28;1000;-49
2022/09/09 01:05:54;;;;;;;;;;;;;;;17.16;57.78;101041.13;5058701;28;968;-51
2022/09/09 01:08:19;;;;;;;;;;;;;;;17.10;58.12;101043.84;5058779;28;1198;-50
2022/09/09 01:10:49;;;;;;;;;;;;;;;16.64;58.51;101035.41;5058674;28;1237;-51
2022/09/09 01:13:24;;;;;;;;;;;;;;;16.43;58.43;101040.81;5060394;28;1049;-52
2022/09/09 01:15:53;;;;;;;;;;;;;;;16.34;57.84;101042.41;5076530;28;1107;-51
2022/09/09 01:18:20;;;;;;;;;;;;;;;16.25;57.80;101055.78;5067756;28;1972;-52
2022/09/09 01:20:49;;;;;;;;;;;;;;;16.22;57.20;101055.50;5060337;28;1127;-50
2022/09/09 01:23:27;;;;;;;;;;;;;;;16.12;57.33;101049.94;5058936;28;1127;-50
2022/09/09 01:26:14;;;;;;;;;;;;;;;16.03;57.26;101050.44;5051872;28;1170;-49
2022/09/09 01:28:40;;;;;;;;;;;;;;;16.00;57.20;101056.44;5058449;28;1494;-52
2022/09/09 01:31:11;;;;;;;;;;;;;;;15.97;57.08;101050.66;5048153;28;1238;-47
2022/09/09 01:33:43;;;;;;;;;;;;;;;16.48;58.00;101039.19;5058604;28;1178;-51
2022/09/09 01:36:13;;;;;;;;;;;;;;;17.43;57.61;101040.91;5089479;28;972;-50
2022/09/09 01:38:45;;;;;;;;;;;;;;;16.69;58.61;101043.69;5058380;28;1987;-51
2022/09/09 01:41:11;;;;;;;;;;;;;;;16.52;58.16;101048.53;5059640;28;1338;-52
2022/09/09 01:43:46;;;;;;;;;;;;;;;16.33;58.08;101040.75;5058027;28;1653;-51
2022/09/09 01:46:11;;;;;;;;;;;;;;;16.23;57.84;101040.69;5041632;28;1112;-51
2022/09/09 01:48:38;;;;;;;;;;;;;;;16.17;57.51;101033.50;5058108;28;1303;-49
2022/09/09 01:51:08;;;;;;;;;;;;;;;16.07;57.27;101040.59;5051112;28;1104;-47
2022/09/09 01:53:33;;;;;;;;;;;;;;;16.03;57.04;101041.38;5055577;28;1171;-49
2022/09/09 01:56:02;;;;;;;;;;;;;;;15.99;56.94;101040.25;5076336;28;1202;-51
2022/09/09 01:58:37;;;;;;;;;;;;;;;15.98;56.88;101038.63;5057448;28;1898;-51
2022/09/09 02:01:27;;;;;;;;;;;;;;;15.90;56.76;101035.25;5057933;28;1245;-49
2022/09/09 02:03:54;;;;;;;;;;;;;;;17.29;57.73;101046.09;5045798;28;1290;-50
2022/09/09 02:06:37;;;;;;;;;;;;;;;16.85;58.43;101057.50;5058822;28;1287;-47
2022/09/09 02:09:25;;;;;;;;;;;;;;;16.48;58.25;101053.75;5056090;28;1177;-52
2022/09/09 02:11:56;;;;;;;;;;;;;;;16.33;57.90;101045.44;5045063;28;1334;-53
2022/09/09 02:14:29;;;;;;;;;;;;;;;16.22;57.72;101037.13;5046027;28;1359;-51
2022/09/09 02:16:56;;;;;;;;;;;;;;;16.08;57.65;101047.72;5057727;28;1285;-49
2022/09/09 02:19:35;;;;;;;;;;;;;;;16.03;57.49;101052.34;5078479;28;1910;-51
2022/09/09 02:22:17;;;;;;;;;;;;;;;16.00;57.11;101045.47;5064712;28;1265;-48
2022/09/09 02:24:43;;;;;;;;;;;;;;;16.99;58.17;101047.69;5061939;28;1575;-50
2022/09/09 02:27:29;;;;;;;;;;;;;;;17.07;58.23;101049.91;5063757;28;1037;-53
2022/09/09 02:29:54;;;;;;;;;;;;;;;16.63;58.59;101049.44;5044705;28;1578;-52
2022/09/09 02:32:32;;;;;;;;;;;;;;;16.39;58.36;101050.66;5061604;28;1154;-52
2022/09/09 02:35:00;;;;;;;;;;;;;;;16.26;57.98;101048.41;5065645;28;1132;-52
2022/09/09 02:37:28;;;;;;;;;;;;;;;16.21;57.44;101049.16;5063961;28;1135;-51
2022/09/09 02:39:55;;;;;;;;;;;;;;;16.12;57.74;101045.28;5062562;28;1910;-52
2022/09/09 02:42:22;;;;;;;;;;;;;;;16.09;57.42;101045.81;5045556;28;1390;-54
2022/09/09 02:44:49;;;;;;;;;;;;;;;16.03;57.22;101044.97;5061308;28;1162;-51
2022/09/09 02:47:14;;;;;;;;;;;;;;;17.20;58.00;101048.56;5061180;28;1122;-50
2022/09/09 02:49:50;;;;;;;;;;;;;;;17.14;58.29;101046.91;5060314;28;1474;-53
2022/09/09 02:52:22;;;;;;;;;;;;;;;16.65;58.32;101042.56;5061221;28;1167;-52
2022/09/09 02:54:47;;;;;;;;;;;;;;;16.45;58.29;101047.94;5072228;28;1018;-51
2022/09/09 02:57:16;;;;;;;;;;;;;;;16.36;57.94;101040.22;5052487;28;1272;-51
2022/09/09 02:59:43;;;;;;;;;;;;;;;16.26;57.56;101042.91;5040650;28;1960;-49
2022/09/09 03:02:09;;;;;;;;;;;;;;;16.19;57.33;101040.41;5058865;28;1160;-50
2022/09/09 03:04:36;;;;;;;;;;;;;;;16.09;57.46;101034.84;5037497;28;1115;-50
2022/09/09 03:07:03;;;;;;;;;;;;;;;16.04;57.30;101043.84;5062777;28;1314;-52
2022/09/09 03:09:29;;;;;;;;;;;;;;;15.98;56.93;101044.91;5057001;28;1029;-53
2022/09/09 03:11:55;;;;;;;;;;;;;;;16.08;57.51;101041.41;5058434;28;1025;-51
2022/09/09 03:14:24;;;;;;;;;;;;;;;17.43;57.50;101044.50;5060258;28;1166;-52
2022/09/09 03:16:50;;;;;;;;;;;;;;;16.76;58.68;101044.28;5068420;28;1009;-54
2022/09/09 03:19:16;;;;;;;;;;;;;;;16.49;58.46;101051.81;5055820;28;1894;-52
2022/09/09 03:21:41;;;;;;;;;;;;;;;16.28;58.15;101051.69;5067996;28;1076;-52
2022/09/09 03:24:07;;;;;;;;;;;;;;;16.21;57.81;101046.44;5054179;28;1088;-51
2022/09/09 03:26:32;;;;;;;;;;;;;;;16.12;57.52;101044.44;5057086;28;1231;-51
2022/09/09 03:29:00;;;;;;;;;;;;;;;16.09;57.41;101045.81;5038869;28;1211;-51
2022/09/09 03:31:29;;;;;;;;;;;;;;;16.03;57.15;101050.44;5039908;28;1234;-54
2022/09/09 03:33:57;;;;;;;;;;;;;;;16.60;58.03;101045.28;5056800;28;1105;-51
2022/09/09 03:36:26;;;;;;;;;;;;;;;17.08;58.15;101046.06;5040237;28;1205;-50
2022/09/09 03:38:51;;;;;;;;;;;;;;;16.60;58.58;101046.09;5056981;28;1959;-50
2022/09/09 03:41:17;;;;;;;;;;;;;;;16.38;58.13;101046.28;5057676;28;950;-53
2022/09/09 03:43:43;;;;;;;;;;;;;;;16.27;58.17;101043.72;5064031;28;1107;-50
2022/09/09 03:46:08;;;;;;;;;;;;;;;16.16;57.85;101045.56;5057795;28;1058;-51
2022/09/09 03:48:34;;;;;;;;;;;;;;;16.14;57.50;101058.75;5056474;28;1265;-51
2022/09/09 03:51:01;;;;;;;;;;;;;;;16.02;57.40;101053.44;5039945;28;1206;-49
2022/09/09 03:53:28;;;;;;;;;;;;;;;16.04;57.45;101046.59;5037578;28;1408;-50
2022/09/09 03:55:55;;;;;;;;;;;;;;;16.01;57.49;101043.56;5033096;28;1159;-48
2022/09/09 03:58:23;;;;;;;;;;;;;;;17.36;57.88;101049.44;5046731;28;1898;-47
2022/09/09 04:00:57;;;;;;;;;;;;;;;16.86;58.53;101050.91;5032444;28;1160;-51
2022/09/09 04:03:24;;;;;;;;;;;;;;;16.51;58.32;101041.38;5025739;28;1598;-47
2022/09/09 04:05:51;;;;;;;;;;;;;;;16.37;58.12;101038.31;5048531;28;954;-48
2022/09/09 04:08:18;;;;;;;;;;;;;;;16.28;57.92;101048.13;5039972;28;1307;-47
2022/09/09 04:10:46;;;;;;;;;;;;;;;16.17;57.60;101047.22;5039544;28;1230;-49
2022/09/09 04:13:15;;;;;;;;;;;;;;;16.06;57.67;101041.69;5057243;28;997;-48
2022/09/09 04:15:41;;;;;;;;;;;;;;;16.06;57.23;101051.81;5035379;28;1117;-49
2022/09/09 04:18:06;;;;;;;;;;;;;;;16.03;57.14;101052.34;5040720;28;1977;-45
2022/09/09 04:20:32;;;;;;;;;;;;;;;15.96;57.11;101044.34;5061468;28;900;-46
2022/09/09 04:22:58;;;;;;;;;;;;;;;16.57;58.12;101051.31;5039172;28;1171;-45
2022/09/09 04:25:24;;;;;;;;;;;;;;;17.69;57.22;101041.75;5056991;28;1191;-45
2022/09/09 04:27:56;;;;;;;;;;;;;;;16.89;58.48;101055.88;5046195;28;1010;-46
2022/09/09 04:30:22;;;;;;;;;;;;;;;16.57;58.52;101056.81;5028901;28;1431;-47
2022/09/09 04:32:47;;;;;;;;;;;;;;;16.45;58.02;101069.91;5056949;28;969;-50
2022/09/09 04:35:13;;;;;;;;;;;;;;;16.34;57.99;101066.28;5039299;28;1189;-51
2022/09/09 04:37:39;;;;;;;;;;;;;;;16.21;57.79;101059.34;5043148;28;1195;-47
2022/09/09 04:40:05;;;;;;;;;;;;;;;16.20;57.61;101060.41;5038169;28;1917;-48
2022/09/09 04:42:34;;;;;;;;;;;;;;;17.13;58.25;101058.97;5042531;28;1217;-48
2022/09/09 04:45:01;;;;;;;;;;;;;;;16.97;58.36;101060.03;5052679;28;1008;-49
2022/09/09 04:47:27;;;;;;;;;;;;;;;16.57;58.70;101057.63;5038736;28;1218;-48
2022/09/09 04:49:54;;;;;;;;;;;;;;;16.46;58.11;101053.16;5039194;28;1123;-48
2022/09/09 04:52:20;;;;;;;;;;;;;;;16.40;57.68;101052.31;5037932;28;1309;-46
2022/09/09 04:54:45;;;;;;;;;;;;;;;16.27;57.80;101052.81;5024861;28;1030;-48
2022/09/09 04:57:11;;;;;;;;;;;;;;;16.22;57.71;101055.50;5036310;28;1423;-50
2022/09/09 04:59:39;;;;;;;;;;;;;;;16.16;57.39;101056.53;5038887;28;1910;-48
2022/09/09 05:02:04;;;;;;;;;;;;;;;16.14;57.24;101061.47;5038377;28;1132;-46
2022/09/09 05:04:30;;;;;;;;;;;;;;;16.17;57.13;101060.94;5038239;28;1264;-49
2022/09/09 05:06:55;;;;;;;;;;;;;;;17.45;57.61;101067.03;5032661;28;1569;-46
2022/09/09 05:09:22;;;;;;;;;;;;;;;16.87;58.50;101071.75;5034766;28;1116;-46
2022/09/09 05:11:48;;;;;;;;;;;;;;;16.58;58.60;101069.44;5056232;28;1060;-50
2022/09/09 05:14:22;;;;;;;;;;;;;;;16.45;58.44;101065.22;5036451;28;1179;-46
2022/09/09 05:16:49;;;;;;;;;;;;;;;16.32;58.15;101061.03;5056286;28;978;-48
2022/09/09 05:19:15;;;;;;;;;;;;;;;16.28;57.90;101059.91;5034842;28;1910;-48
2022/09/09 05:21:46;;;;;;;;;;;;;;;16.24;57.78;101059.66;5059527;28;1052;-49
2022/09/09 05:24:14;;;;;;;;;;;;;;;16.19;57.56;101061.53;5023916;28;1191;-49
2022/09/09 05:26:40;;;;;;;;;;;;;;;16.11;57.50;101049.13;5041183;28;1222;-46
2022/09/09 05:29:06;;;;;;;;;;;;;;;16.08;57.40;101044.97;5038004;28;1201;-48
2022/09/09 05:31:32;;;;;;;;;;;;;;;16.02;57.47;101048.78;5037326;28;852;-49
2022/09/09 05:34:02;;;;;;;;;;;;;;;16.00;57.29;101044.66;5038168;28;1335;-50
2022/09/09 05:36:28;;;;;;;;;;;;;;;16.01;57.31;101046.31;5037784;28;1903;-47
2022/09/09 05:38:55;;;;;;;;;;;;;;;15.94;57.35;101038.31;5044332;28;1917;-45
2022/09/09 05:41:22;;;;;;;;;;;;;;;16.01;57.40;101044.38;5037790;28;1274;-49
2022/09/09 05:43:49;;;;;;;;;;;;;;;17.42;54.90;101037.34;5038556;28;1120;-46
2022/09/09 05:46:16;;;;;;;;;;;;;;;16.53;55.31;101039.22;5037660;28;1170;-48
2022/09/09 05:48:42;;;;;;;;;;;;;;;16.24;53.86;101039.59;5036073;28;1162;-47
2022/09/09 05:51:09;;;;;;;;;;;;;;;16.29;53.26;101034.16;5038275;28;1180;-48
2022/09/09 05:53:34;;;;;;;;;;;;;;;16.68;54.68;101043.97;5041863;28;1138;-49
2022/09/09 05:56:03;;;;;;;;;;;;;;;16.45;53.27;101035.03;5067002;28;1008;-48
2022/09/09 05:58:30;;;;;;;;;;;;;;;16.30;52.29;101035.81;5036694;28;1988;-48
2022/09/09 06:01:02;;;;;;;;;;;;;;;16.24;51.30;101029.47;5041566;28;1217;-49
2022/09/09 06:03:27;;;;;;;;;;;;;;;17.42;53.41;101040.09;5054988;28;982;-48
2022/09/09 06:06:05;;;;;;;;;;;;;;;16.64;53.67;101038.16;5040003;28;1091;-45
2022/09/09 06:08:31;;;;;;;;;;;;;;;16.57;52.07;101029.34;5037651;28;1483;-46
2022/09/09 06:11:02;;;;;;;;;;;;;;;16.42;51.29;101039.16;5059493;28;1104;-46
2022/09/09 06:13:29;;;;;;;;;;;;;;;16.95;53.07;101024.59;5044168;28;1164;-49
2022/09/09 06:15:55;;;;;;;;;;;;;;;16.67;52.09;101025.84;5066681;28;1063;-47
2022/09/09 06:18:21;;;;;;;;;;;;;;;16.58;51.13;101031.00;5036391;28;1980;-48
2022/09/09 06:20:53;;;;;;;;;;;;;;;16.87;51.50;101034.16;5053756;28;1224;-49
2022/09/09 06:23:20;;;;;;;;;;;;;;;17.00;52.17;101034.75;5043385;28;1140;-46
2022/09/09 06:25:45;;;;;;;;;;;;;;;16.75;51.33;101050.84;5059232;28;1370;-48
2022/09/09 06:28:11;;;;;;;;;;;;;;;16.75;51.10;101045.34;5048482;28;1230;-44
2022/09/09 06:30:36;;;;;;;;;;;;;;;17.38;52.14;101041.72;5034146;28;1474;-49
2022/09/09 06:33:03;;;;;;;;;;;;;;;16.83;52.17;101043.19;5036347;28;1311;-49
2022/09/09 06:35:29;;;;;;;;;;;;;;;16.85;50.72;101046.50;5036679;28;1587;-47
2022/09/09 06:37:54;;;;;;;;;;;;;;;16.70;50.03;101045.31;5033115;28;1357;-44
2022/09/09 06:40:20;;;;;;;;;;;;;;;16.64;49.91;101049.16;5052985;28;1969;-44
2022/09/09 06:42:46;;;;;;;;;;;;;;;16.62;49.08;101054.09;5029676;28;1346;-49
2022/09/09 06:45:37;;;;;;;;;;;;;;;16.67;48.55;101056.84;5048827;28;1520;-45
2022/09/09 06:48:03;;;;;;;;;;;;;;;16.65;48.31;101061.78;5030650;28;1351;-48
2022/09/09 06:50:28;;;;;;;;;;;;;;;16.55;48.27;101059.81;5036669;28;1345;-47
2022/09/09 06:52:54;;;;;;;;;;;;;;;16.51;48.25;101066.94;5036806;28;1270;-43
2022/09/09 06:55:20;;;;;;;;;;;;;;;16.48;48.38;101053.75;5030636;28;1278;-50
2022/09/09 06:57:46;;;;;;;;;;;;;;;17.21;49.83;101066.69;5062391;28;1355;-46
2022/09/09 07:00:16;;;;;;;;;;;;;;;16.86;49.83;101056.41;5052497;28;1905;-48
2022/09/09 07:02:42;;;;;;;;;;;;;;;16.74;49.48;101051.94;5068417;28;1140;-49
2022/09/09 07:05:09;;;;;;;;;;;;;;;16.64;49.06;101051.09;5060556;28;1275;-47
2022/09/09 07:07:34;;;;;;;;;;;;;;;16.54;48.95;101058.16;5040994;28;1014;-48
2022/09/09 07:10:00;;;;;;;;;;;;;;;16.63;48.75;101049.44;5052153;28;1517;-51
2022/09/09 07:12:26;;;;;;;;;;;;;;;17.04;50.13;101058.69;5059511;28;1192;-52
2022/09/09 07:14:56;;;;;;;;;;;;;;;17.35;51.79;101063.41;5055976;28;1219;-50
2022/09/09 07:17:22;;;;;;;;;;;;;;;16.93;51.17;101063.31;5054897;28;1386;-53
2022/09/09 07:19:48;;;;;;;;;;;;;;;16.83;50.34;101059.66;5071885;28;1905;-52
2022/09/09 07:22:15;;;;;;;;;;;;;;;17.54;51.45;101053.56;5071339;28;1044;-53
2022/09/09 07:24:41;;;;;;;;;;;;;;;17.19;50.91;101057.88;5067012;28;1134;-48
2022/09/09 07:27:07;;;;;;;;;;;;;;;16.98;50.46;101062.50;5084104;28;1036;-51
2022/09/09 07:29:34;;;;;;;;;;;;;;;16.95;49.83;101057.53;5065220;28;1190;-50
2022/09/09 07:32:02;;;;;;;;;;;;;;;16.86;49.29;101059.16;5060638;28;1193;-49
2022/09/09 07:34:32;;;;;;;;;;;;;;;16.80;49.05;101058.28;5055363;28;1267;-49
2022/09/09 07:36:57;;;;;;;;;;;;;;;16.87;48.29;101055.28;5058337;28;1162;-51
2022/09/09 07:39:23;;;;;;;;;;;;;;;17.55;49.67;101059.91;5072743;28;1982;-51
2022/09/09 07:41:54;;;;;;;;;;;;;;;17.17;50.10;101064.78;5052653;28;1166;-52
2022/09/09 07:44:22;;;;;;;;;;;;;;;17.03;49.53;101076.25;5059476;28;1311;-50
2022/09/09 07:46:52;;;;;;;;;;;;;;;16.92;49.00;101074.56;5047139;28;1409;-53
2022/09/09 07:49:22;;;;;;;;;;;;;;;16.87;48.76;101072.59;5060179;28;1182;-51
2022/09/09 07:51:49;;;;;;;;;;;;;;;16.89;48.39;101067.69;5053528;28;1473;-51
2022/09/09 07:54:17;;;;;;;;;;;;;;;16.81;48.47;101072.84;5046787;28;1333;-52
2022/09/09 07:56:44;;;;;;;;;;;;;;;16.80;48.28;101062.94;5044242;28;1311;-51
2022/09/09 07:59:11;;;;;;;;;;;;;;;16.77;48.46;101067.06;5059173;28;1969;-49
2022/09/09 08:01:40;;;;;;;;;;;;;;;16.84;48.09;101064.06;5062448;28;1157;-52
2022/09/09 08:04:14;;;;;;;;;;;;;;;16.73;47.96;101054.94;5059085;28;1187;-51
2022/09/09 08:06:42;;;;;;;;;;;;;;;16.76;48.06;101066.25;5055237;28;1118;-49
2022/09/09 08:09:08;;;;;;;;;;;;;;;16.81;47.74;101061.88;5060295;28;1208;-50
2022/09/09 08:11:35;;;;;;;;;;;;;;;16.80;47.72;101065.69;5061694;28;1208;-49
2022/09/09 08:14:02;;;;;;;;;;;;;;;17.51;49.02;101053.28;5055064;28;1300;-50
2022/09/09 08:16:30;;;;;;;;;;;;;;;17.20;49.46;101040.31;5051836;28;1333;-51
2022/09/09 08:18:56;;;;;;;;;;;;;;;16.98;49.32;101029.53;5057279;28;1961;-49
2022/09/09 08:21:23;;;;;;;;;;;;;;;17.00;48.55;101029.25;5052134;28;1160;-49
2022/09/09 08:23:49;;;;;;;;;;;;;;;16.92;48.72;101030.63;5047998;28;1256;-47
2022/09/09 08:26:21;;;;;;;;;;;;;;;16.92;48.12;101025.13;5064684;28;1195;-49
2022/09/09 08:28:47;;;;;;;;;;;;;;;16.79;48.29;101025.59;5058564;28;1442;-47
2022/09/09 08:31:13;;;;;;;;;;;;;;;16.81;48.10;101020.66;5058474;28;1392;-49
2022/09/09 08:33:41;;;;;;;;;;;;;;;16.76;47.89;101005.81;5057447;28;1129;-47
2022/09/09 08:36:09;;;;;;;;;;;;;;;16.69;47.87;100999.75;5058512;28;1142;-48
2022/09/09 08:38:34;;;;;;;;;;;;;;;16.75;47.70;100998.66;5053241;28;1906;-50
2022/09/09 08:41:06;;;;;;;;;;;;;;;16.83;47.52;101004.72;5056792;28;1530;-50
2022/09/09 08:43:32;;;;;;;;;;;;;;;16.79;47.34;101006.38;5054974;28;1187;-49
2022/09/09 08:46:00;;;;;;;;;;;;;;;16.71;47.68;100997.56;5041838;28;1188;-51
2022/09/09 08:48:32;;;;;;;;;;;;;;;16.88;47.85;101002.84;5062315;28;997;-50
2022/09/09 08:51:01;;;;;;;;;;;;;;;17.30;49.36;100992.78;5080605;28;968;-51
2022/09/09 08:53:32;;;;;;;;;;;;;;;17.09;48.93;101005.66;5046843;28;1240;-50
2022/09/09 08:56:03;;;;;;;;;;;;;;;16.97;48.78;100997.69;5034719;28;1295;-50
2022/09/09 08:58:44;;;;;;;;;;;;;;;16.86;48.28;100995.97;5032932;28;1983;-49
2022/09/09 09:01:09;;;;;;;;;;;;;;;16.82;48.29;100987.44;5037202;28;1108;-46
2022/09/09 09:03:42;;;;;;;;;;;;;;;16.85;48.00;100988.81;5058553;28;1155;-50
2022/09/09 09:06:13;;;;;;;;;;;;;;;16.79;47.91;100989.88;5076670;28;1273;-49
2022/09/09 09:08:43;;;;;;;;;;;;;;;16.83;47.75;100999.25;5057584;28;1553;-49
2022/09/09 09:11:08;;;;;;;;;;;;;;;16.74;47.77;100997.00;5057969;28;1132;-49
2022/09/09 09:14:12;;;;;;;;;;;;;;;16.75;47.66;100987.69;5060563;28;1124;-48
2022/09/09 09:16:39;;;;;;;;;;;;;;;16.73;47.53;100978.91;4951211;28;1283;-50
2022/09/09 09:19:05;;;;;;;;;;;;;;;16.80;47.34;100988.81;4961345;28;1971;-47
2022/09/09 09:21:34;;;;;;;;;;;;;;;16.73;47.57;100994.53;4987882;28;1399;-51
2022/09/09 09:24:00;;;;;;;;;;;;;;;16.72;47.59;100990.16;5057974;28;1273;-50
2022/09/09 09:26:32;;;;;;;;;;;;;;;16.68;47.89;100997.28;5076948;28;1202;-49
2022/09/09 09:28:58;;;;;;;;;;;;;;;16.75;47.22;101003.34;5060641;28;1329;-50
2022/09/09 09:31:26;;;;;;;;;;;;;;;16.82;47.23;100997.63;5062107;28;1228;-52
2022/09/09 09:33:55;;;;;;;;;;;;;;;16.70;47.31;100995.91;5049277;28;1327;-48
2022/09/09 09:36:25;;;;;;;;;;;;;;;16.67;47.30;101001.94;5049938;28;1328;-50
2022/09/09 09:38:57;;;;;;;;;;;;;;;16.67;47.41;101001.94;5055418;28;1972;-51
2022/09/09 09:41:33;;;;;;;;;;;;;;;16.91;47.76;100996.00;5059329;28;1223;-51
2022/09/09 09:44:00;;;;;;;;;;;;;;;17.22;49.31;101015.31;5055819;28;1258;-51
2022/09/09 09:46:27;;;;;;;;;;;;;;;17.09;48.89;101013.91;5055541;28;1334;-51
2022/09/09 09:49:05;;;;;;;;;;;;;;;16.90;48.80;101005.34;5062268;28;1226;-51
2022/09/09 09:51:32;;;;;;;;;;;;;;;16.88;48.18;100982.78;5053708;28;1272;-52
2022/09/09 09:54:09;;;;;;;;;;;;;;;16.86;47.86;100983.06;5060629;28;1179;-53
2022/09/09 09:56:36;;;;;;;;;;;;;;;16.84;47.72;100987.16;5036760;28;1275;-51
2022/09/09 09:59:04;;;;;;;;;;;;;;;16.79;47.73;100978.91;5061803;28;1906;-52
2022/09/09 10:01:34;;;;;;;;;;;;;;;16.80;47.77;100981.38;5057237;28;1409;-50
2022/09/09 10:04:13;;;;;;;;;;;;;;;16.88;47.50;100977.28;5045508;28;2091;-51
2022/09/09 10:06:39;;;;;;;;;;;;;;;16.76;47.75;100975.63;5045115;28;1112;-46
2022/09/09 10:09:25;;;;;;;;;;;;;;;16.83;47.37;100988.25;5074274;28;1001;-49
2022/09/09 10:12:06;;;;;;;;;;;;;;;16.77;47.49;100973.69;5074865;28;1398;-51
2022/09/09 10:14:35;;;;;;;;;;;;;;;17.49;48.60;100976.59;5085600;28;1104;-50
2022/09/09 10:17:03;;;;;;;;;;;;;;;17.13;48.84;100995.78;5074691;28;997;-51
2022/09/09 10:19:31;;;;;;;;;;;;;;;17.04;48.44;100979.03;5079785;28;1918;-49
2022/09/09 10:22:06;;;;;;;;;;;;;;;16.98;48.21;100974.59;5079063;28;1168;-49
2022/09/09 10:24:39;;;;;;;;;;;;;;;16.91;48.14;100971.28;5060029;28;1029;-50
2022/09/09 10:27:14;;;;;;;;;;;;;;;16.87;48.11;100981.97;5061136;28;1068;-50
2022/09/09 10:29:59;;;;;;;;;;;;;;;16.83;47.92;100977.28;5058011;28;1069;-52
2022/09/09 10:32:43;;;;;;;;;;;;;;;16.81;47.69;100968.50;5050696;28;1021;-49
2022/09/09 10:35:20;;;;;;;;;;;;;;;16.84;47.47;100981.69;5072709;28;1189;-51
2022/09/09 10:38:05;;;;;;;;;;;;;;;16.86;47.37;100963.84;5060002;28;1020;-50
2022/09/09 10:40:55;;;;;;;;;;;;;;;17.82;48.32;100962.53;5081439;28;1123;-47
2022/09/09 10:43:35;;;;;;;;;;;;;;;17.23;48.97;100968.31;5027015;28;1389;-50
2022/09/09 10:46:13;;;;;;;;;;;;;;;17.13;48.85;100973.00;5072559;28;1196;-50
2022/09/09 10:49:03;;;;;;;;;;;;;;;17.03;48.39;100977.34;5072833;28;1020;-47
2022/09/09 10:51:49;;;;;;;;;;;;;;;17.01;48.17;100974.06;5069494;28;1268;-48
2022/09/09 10:54:20;;;;;;;;;;;;;;;16.96;47.85;100971.31;5073307;28;1235;-49
2022/09/09 10:56:48;;;;;;;;;;;;;;;16.92;47.60;100973.75;5072331;28;1048;-49
2022/09/09 10:59:14;;;;;;;;;;;;;;;16.96;47.34;100971.31;5060797;28;1971;-50
2022/09/09 11:01:44;;;;;;;;;;;;;;;16.85;47.60;100962.19;5057931;28;1029;-50
2022/09/09 11:04:11;;;;;;;;;;;;;;;16.84;47.44;100973.44;5060610;28;1074;-50
2022/09/09 11:06:42;;;;;;;;;;;;;;;16.96;47.15;100976.81;5060441;28;1135;-47
2022/09/09 11:09:08;;;;;;;;;;;;;;;16.83;47.53;100966.28;5065611;28;1016;-47
2022/09/09 11:11:42;;;;;;;;;;;;;;;16.84;47.22;100967.94;5055981;28;1162;-50
2022/09/09 11:14:08;;;;;;;;;;;;;;;16.87;47.20;100968.25;5050762;28;1211;-52
2022/09/09 11:16:34;;;;;;;;;;;;;;;16.84;47.09;100971.50;5077597;28;1139;-50
2022/09/09 11:19:02;;;;;;;;;;;;;;;16.83;47.08;100971.78;5072755;28;1897;-50
2022/09/09 11:21:29;;;;;;;;;;;;;;;16.77;47.66;100971.78;5093127;28;1064;-51
2022/09/09 11:23:56;;;;;;;;;;;;;;;16.81;47.21;100973.97;5054374;28;1044;-50
2022/09/09 11:26:45;;;;;;;;;;;;;;;16.77;47.26;100974.53;5060228;28;1136;-48
2022/09/09 11:29:14;;;;;;;;;;;;;;;16.76;47.29;100955.56;5073836;28;962;-48
2022/09/09 11:31:59;;;;;;;;;;;;;;;16.73;47.25;100967.91;5078433;28;1112;-47
2022/09/09 11:34:34;;;;;;;;;;;;;;;16.73;47.36;100956.94;5077820;28;969;-51
2022/09/09 11:37:19;;;;;;;;;;;;;;;16.64;47.54;100957.72;5078084;28;1064;-45
2022/09/09 11:39:48;;;;;;;;;;;;;;;16.69;47.06;100955.81;5077184;28;1970;-49
2022/09/09 11:42:13;;;;;;;;;;;;;;;17.61;48.33;100965.28;5077609;28;1103;-51
2022/09/09 11:44:39;;;;;;;;;;;;;;;17.11;48.88;100951.28;5076538;28;1266;-51
2022/09/09 11:47:16;;;;;;;;;;;;;;;17.02;48.50;100967.47;5059234;28;913;-49
2022/09/09 11:49:41;;;;;;;;;;;;;;;16.96;47.90;100954.81;5067059;28;1083;-49
2022/09/09 11:52:30;;;;;;;;;;;;;;;16.93;47.70;100953.44;5059876;28;1084;-48
2022/09/09 11:54:56;;;;;;;;;;;;;;;16.89;47.77;100949.59;5074344;28;1365;-51
2022/09/09 11:57:25;;;;;;;;;;;;;;;16.85;47.43;100945.69;5073609;28;1282;-49
2022/09/09 11:59:52;;;;;;;;;;;;;;;16.92;47.30;100950.97;5060115;28;1977;-50
2022/09/09 12:02:19;;;;;;;;;;;;;;;16.82;47.54;100951.75;5081249;28;1100;-49
2022/09/09 12:04:48;;;;;;;;;;;;;;;16.97;47.21;100940.00;5054899;28;1255;-49
2022/09/09 12:07:20;;;;;;;;;;;;;;;16.84;47.40;100943.22;5051237;28;1243;-48
2022/09/09 12:09:45;;;;;;;;;;;;;;;16.82;47.05;100950.94;5072275;28;1056;-45
2022/09/09 12:12:11;;;;;;;;;;;;;;;17.09;48.06;100936.97;5080879;28;985;-47
2022/09/09 12:14:37;;;;;;;;;;;;;;;17.07;49.22;100928.19;5081000;28;998;-50
2022/09/09 12:17:22;;;;;;;;;;;;;;;16.94;48.62;100935.03;5074818;28;1001;-52
2022/09/09 12:19:48;;;;;;;;;;;;;;;16.99;48.05;100935.03;5076145;28;1906;-50
2022/09/09 12:22:14;;;;;;;;;;;;;;;16.84;48.10;100924.00;5056913;28;973;-52
2022/09/09 12:25:00;;;;;;;;;;;;;;;16.93;47.39;100919.66;5075640;28;953;-51
2022/09/09 12:27:33;;;;;;;;;;;;;;;16.92;47.35;100915.25;5077007;28;1134;-50
2022/09/09 12:30:03;;;;;;;;;;;;;;;16.91;47.33;100921.84;5071918;28;953;-48
2022/09/09 12:32:29;;;;;;;;;;;;;;;16.72;47.64;100918.78;5059332;28;920;-50
2022/09/09 12:34:57;;;;;;;;;;;;;;;16.82;47.10;100923.47;5068896;28;1234;-50
2022/09/09 12:37:41;;;;;;;;;;;;;;;17.01;47.68;100916.38;5071448;28;1266;-51
2022/09/09 12:40:18;;;;;;;;;;;;;;;17.24;48.91;100916.94;5077055;28;1897;-51
2022/09/09 12:42:43;;;;;;;;;;;;;;;17.06;48.49;100921.88;5074834;28;1333;-51
2022/09/09 12:45:19;;;;;;;;;;;;;;;17.09;48.08;100921.31;5077538;28;1060;-52
2022/09/09 12:47:51;;;;;;;;;;;;;;;17.06;48.01;100912.81;5071206;28;926;-49
2022/09/09 12:50:26;;;;;;;;;;;;;;;17.00;47.62;100914.72;5066769;28;1028;-49
2022/09/09 12:52:53;;;;;;;;;;;;;;;17.02;47.51;100912.50;5070212;28;1024;-49
2022/09/09 12:55:21;;;;;;;;;;;;;;;16.97;47.46;100909.78;5050629;28;1497;-48
2022/09/09 12:57:49;;;;;;;;;;;;;;;16.95;47.19;100911.16;5062316;28;1081;-49
2022/09/09 13:00:16;;;;;;;;;;;;;;;16.89;47.25;100915.81;5057571;28;2000;-49
2022/09/09 13:02:45;;;;;;;;;;;;;;;16.83;47.39;100903.13;5076004;28;1068;-46